Weather at Sunbury East Airport

Public forecast

Using degrees Celsius for public forecast. Weather courtesy of forecast.io.

Closest aviation weather report (METAR) to Sunbury East Airport

Closest report is Melbourne International Airport, 9.7 nm (18.0 km) SSE.

2024/04/22 11:30 (retrieved 11 minutes ago)

YMML 221130Z 36013KT 9999 FEW020 BKN300 15/06 Q1023 RF000/0000

Closest aviation forecast (TAF) to Sunbury East Airport

Closest forecast is Melbourne International Airport, 9.7 nm (18.0 km) SSE.

2024/04/22 09:57 (retrieved 2 hours ago)

TAF YMML 220804Z 2209/2312 36008KT CAVOK FM222200 01018G28KT CAVOK FM230600 35014KT CAVOK